sensor_id;sensor_type;location;lat;lon;timestamp;temperature;humidity
9271;DHT22;4673;53.458;9.940;2023-06-19T00:00:53;20.40;49.10
9271;DHT22;4673;53.458;9.940;2023-06-19T00:03:19;20.40;49.20
9271;DHT22;4673;53.458;9.940;2023-06-19T00:05:44;20.50;49.40
9271;DHT22;4673;53.458;9.940;2023-06-19T00:08:10;20.50;49.20
9271;DHT22;4673;53.458;9.940;2023-06-19T00:10:35;20.40;49.40
9271;DHT22;4673;53.458;9.940;2023-06-19T00:13:01;20.40;49.70
9271;DHT22;4673;53.458;9.940;2023-06-19T00:15:27;20.30;49.60
9271;DHT22;4673;53.458;9.940;2023-06-19T00:17:58;20.40;49.60
9271;DHT22;4673;53.458;9.940;2023-06-19T00:20:24;20.30;49.60
9271;DHT22;4673;53.458;9.940;2023-06-19T00:22:50;20.40;49.60
9271;DHT22;4673;53.458;9.940;2023-06-19T00:25:18;20.30;49.60
9271;DHT22;4673;53.458;9.940;2023-06-19T00:27:44;20.30;49.70
9271;DHT22;4673;53.458;9.940;2023-06-19T00:30:10;20.30;49.70
9271;DHT22;4673;53.458;9.940;2023-06-19T00:32:35;20.30;49.80
9271;DHT22;4673;53.458;9.940;2023-06-19T00:35:12;20.40;49.80
9271;DHT22;4673;53.458;9.940;2023-06-19T00:37:38;20.30;49.80
9271;DHT22;4673;53.458;9.940;2023-06-19T00:40:07;20.30;50.10
9271;DHT22;4673;53.458;9.940;2023-06-19T00:42:35;20.30;50.20
9271;DHT22;4673;53.458;9.940;2023-06-19T00:45:00;20.30;50.10
9271;DHT22;4673;53.458;9.940;2023-06-19T00:47:26;20.30;50.00
9271;DHT22;4673;53.458;9.940;2023-06-19T00:49:52;20.30;49.80
9271;DHT22;4673;53.458;9.940;2023-06-19T00:52:17;20.20;50.30
9271;DHT22;4673;53.458;9.940;2023-06-19T00:54:44;20.30;49.80
9271;DHT22;4673;53.458;9.940;2023-06-19T00:57:10;20.30;49.90
9271;DHT22;4673;53.458;9.940;2023-06-19T00:59:36;20.20;50.00
9271;DHT22;4673;53.458;9.940;2023-06-19T01:02:01;20.20;50.40
9271;DHT22;4673;53.458;9.940;2023-06-19T01:04:28;20.20;50.80
9271;DHT22;4673;53.458;9.940;2023-06-19T01:07:11;20.20;51.00
9271;DHT22;4673;53.458;9.940;2023-06-19T01:09:51;20.10;51.30
9271;DHT22;4673;53.458;9.940;2023-06-19T01:12:24;20.10;51.20
9271;DHT22;4673;53.458;9.940;2023-06-19T01:14:58;20.10;51.40
9271;DHT22;4673;53.458;9.940;2023-06-19T01:17:28;20.10;51.40
9271;DHT22;4673;53.458;9.940;2023-06-19T01:19:55;20.10;51.40
9271;DHT22;4673;53.458;9.940;2023-06-19T01:24:53;20.10;51.40
9271;DHT22;4673;53.458;9.940;2023-06-19T01:27:18;20.00;51.30
9271;DHT22;4673;53.458;9.940;2023-06-19T01:29:44;20.00;51.10
9271;DHT22;4673;53.458;9.940;2023-06-19T01:32:18;20.00;51.00
9271;DHT22;4673;53.458;9.940;2023-06-19T01:34:46;20.00;51.40
9271;DHT22;4673;53.458;9.940;2023-06-19T01:37:13;20.00;51.30
9271;DHT22;4673;53.458;9.940;2023-06-19T01:39:40;20.00;51.40
9271;DHT22;4673;53.458;9.940;2023-06-19T01:42:06;20.10;51.50
9271;DHT22;4673;53.458;9.940;2023-06-19T01:44:35;20.00;51.60
9271;DHT22;4673;53.458;9.940;2023-06-19T01:47:08;20.00;51.60
9271;DHT22;4673;53.458;9.940;2023-06-19T01:49:34;20.00;51.80
9271;DHT22;4673;53.458;9.940;2023-06-19T01:52:00;20.00;52.00
9271;DHT22;4673;53.458;9.940;2023-06-19T01:54:26;19.90;52.00
9271;DHT22;4673;53.458;9.940;2023-06-19T01:56:52;19.90;52.20
9271;DHT22;4673;53.458;9.940;2023-06-19T01:59:17;20.00;52.20
9271;DHT22;4673;53.458;9.940;2023-06-19T02:01:43;20.00;52.10
9271;DHT22;4673;53.458;9.940;2023-06-19T02:04:09;20.00;52.10
9271;DHT22;4673;53.458;9.940;2023-06-19T02:06:35;19.90;52.30
9271;DHT22;4673;53.458;9.940;2023-06-19T02:09:00;19.90;52.30
9271;DHT22;4673;53.458;9.940;2023-06-19T02:11:26;20.00;52.60
9271;DHT22;4673;53.458;9.940;2023-06-19T02:13:52;19.90;52.70
9271;DHT22;4673;53.458;9.940;2023-06-19T02:16:17;19.90;52.80
9271;DHT22;4673;53.458;9.940;2023-06-19T02:18:43;19.90;52.50
9271;DHT22;4673;53.458;9.940;2023-06-19T02:21:09;19.90;52.60
9271;DHT22;4673;53.458;9.940;2023-06-19T02:23:37;19.90;52.60
9271;DHT22;4673;53.458;9.940;2023-06-19T02:26:03;19.80;52.70
9271;DHT22;4673;53.458;9.940;2023-06-19T02:28:28;19.80;52.80
9271;DHT22;4673;53.458;9.940;2023-06-19T02:30:54;19.80;53.00
9271;DHT22;4673;53.458;9.940;2023-06-19T02:33:20;19.80;53.00
9271;DHT22;4673;53.458;9.940;2023-06-19T02:35:45;19.80;53.20
9271;DHT22;4673;53.458;9.940;2023-06-19T02:38:11;19.80;53.40
9271;DHT22;4673;53.458;9.940;2023-06-19T02:40:40;19.80;53.40
9271;DHT22;4673;53.458;9.940;2023-06-19T02:43:06;19.80;53.70
9271;DHT22;4673;53.458;9.940;2023-06-19T02:45:31;19.80;53.70
9271;DHT22;4673;53.458;9.940;2023-06-19T02:47:57;19.80;54.00
9271;DHT22;4673;53.458;9.940;2023-06-19T02:50:23;19.80;54.00
9271;DHT22;4673;53.458;9.940;2023-06-19T02:52:49;19.70;54.10
9271;DHT22;4673;53.458;9.940;2023-06-19T02:55:14;19.70;54.40
9271;DHT22;4673;53.458;9.940;2023-06-19T02:57:40;19.70;54.50
9271;DHT22;4673;53.458;9.940;2023-06-19T03:00:06;19.70;54.50
9271;DHT22;4673;53.458;9.940;2023-06-19T03:02:32;19.70;54.30
9271;DHT22;4673;53.458;9.940;2023-06-19T03:04:58;19.70;54.40
9271;DHT22;4673;53.458;9.940;2023-06-19T03:07:23;19.70;54.50
9271;DHT22;4673;53.458;9.940;2023-06-19T03:09:54;19.70;54.60
9271;DHT22;4673;53.458;9.940;2023-06-19T03:12:19;19.60;54.50
9271;DHT22;4673;53.458;9.940;2023-06-19T03:14:45;19.70;54.50
9271;DHT22;4673;53.458;9.940;2023-06-19T03:17:11;19.70;54.20
9271;DHT22;4673;53.458;9.940;2023-06-19T03:19:37;19.70;53.90
9271;DHT22;4673;53.458;9.940;2023-06-19T03:22:03;19.80;53.70
9271;DHT22;4673;53.458;9.940;2023-06-19T03:24:28;19.80;53.80
9271;DHT22;4673;53.458;9.940;2023-06-19T03:26:54;19.70;53.90
9271;DHT22;4673;53.458;9.940;2023-06-19T03:29:20;19.70;54.00
9271;DHT22;4673;53.458;9.940;2023-06-19T03:31:45;19.70;54.20
9271;DHT22;4673;53.458;9.940;2023-06-19T03:34:11;19.60;54.20
9271;DHT22;4673;53.458;9.940;2023-06-19T03:36:37;19.70;54.40
9271;DHT22;4673;53.458;9.940;2023-06-19T03:39:04;19.70;54.40
9271;DHT22;4673;53.458;9.940;2023-06-19T03:41:29;19.60;54.50
9271;DHT22;4673;53.458;9.940;2023-06-19T03:43:55;19.60;54.60
9271;DHT22;4673;53.458;9.940;2023-06-19T03:46:20;19.60;54.50
9271;DHT22;4673;53.458;9.940;2023-06-19T03:48:46;19.60;54.80
9271;DHT22;4673;53.458;9.940;2023-06-19T03:51:12;19.50;54.90
9271;DHT22;4673;53.458;9.940;2023-06-19T03:53:38;19.50;55.20
9271;DHT22;4673;53.458;9.940;2023-06-19T03:56:03;19.50;55.20
9271;DHT22;4673;53.458;9.940;2023-06-19T03:58:29;19.50;55.10
9271;DHT22;4673;53.458;9.940;2023-06-19T04:00:55;19.50;55.10
9271;DHT22;4673;53.458;9.940;2023-06-19T04:03:20;19.50;55.10
9271;DHT22;4673;53.458;9.940;2023-06-19T04:05:46;19.60;54.60
9271;DHT22;4673;53.458;9.940;2023-06-19T04:08:12;19.60;54.60
9271;DHT22;4673;53.458;9.940;2023-06-19T04:10:37;19.50;54.80
9271;DHT22;4673;53.458;9.940;2023-06-19T04:13:03;19.50;54.90
9271;DHT22;4673;53.458;9.940;2023-06-19T04:15:32;19.50;54.80
9271;DHT22;4673;53.458;9.940;2023-06-19T04:17:58;19.50;55.00
9271;DHT22;4673;53.458;9.940;2023-06-19T04:20:26;19.50;54.90
9271;DHT22;4673;53.458;9.940;2023-06-19T04:22:51;19.60;54.70
9271;DHT22;4673;53.458;9.940;2023-06-19T04:25:17;19.60;54.70
9271;DHT22;4673;53.458;9.940;2023-06-19T04:27:43;19.60;54.70
9271;DHT22;4673;53.458;9.940;2023-06-19T04:30:10;19.60;54.70
9271;DHT22;4673;53.458;9.940;2023-06-19T04:32:36;19.50;55.10
9271;DHT22;4673;53.458;9.940;2023-06-19T04:35:09;19.50;55.10
9271;DHT22;4673;53.458;9.940;2023-06-19T04:37:35;19.50;55.50
9271;DHT22;4673;53.458;9.940;2023-06-19T04:40:01;19.50;55.50
9271;DHT22;4673;53.458;9.940;2023-06-19T04:42:27;19.50;55.60
9271;DHT22;4673;53.458;9.940;2023-06-19T04:44:52;19.60;55.40
9271;DHT22;4673;53.458;9.940;2023-06-19T04:47:23;19.60;55.30
9271;DHT22;4673;53.458;9.940;2023-06-19T04:49:48;19.60;55.30
9271;DHT22;4673;53.458;9.940;2023-06-19T04:52:14;19.60;55.20
9271;DHT22;4673;53.458;9.940;2023-06-19T04:54:40;19.60;55.30
9271;DHT22;4673;53.458;9.940;2023-06-19T04:57:06;19.60;55.50
9271;DHT22;4673;53.458;9.940;2023-06-19T04:59:35;19.60;55.70
9271;DHT22;4673;53.458;9.940;2023-06-19T05:02:02;19.60;55.70
9271;DHT22;4673;53.458;9.940;2023-06-19T05:04:27;19.60;55.80
9271;DHT22;4673;53.458;9.940;2023-06-19T05:06:58;19.60;55.60
9271;DHT22;4673;53.458;9.940;2023-06-19T05:09:24;19.70;55.70
9271;DHT22;4673;53.458;9.940;2023-06-19T05:11:49;19.70;55.60
9271;DHT22;4673;53.458;9.940;2023-06-19T05:14:15;19.70;55.20
9271;DHT22;4673;53.458;9.940;2023-06-19T05:16:41;19.60;55.50
9271;DHT22;4673;53.458;9.940;2023-06-19T05:19:07;19.60;55.50
9271;DHT22;4673;53.458;9.940;2023-06-19T05:21:32;19.60;55.60
9271;DHT22;4673;53.458;9.940;2023-06-19T05:23:58;19.60;55.50
9271;DHT22;4673;53.458;9.940;2023-06-19T05:26:24;19.60;55.50
9271;DHT22;4673;53.458;9.940;2023-06-19T05:28:51;19.60;55.50
9271;DHT22;4673;53.458;9.940;2023-06-19T05:31:17;19.70;55.50
9271;DHT22;4673;53.458;9.940;2023-06-19T05:33:44;19.70;55.70
9271;DHT22;4673;53.458;9.940;2023-06-19T05:36:10;19.80;55.50
9271;DHT22;4673;53.458;9.940;2023-06-19T05:38:36;19.80;55.20
9271;DHT22;4673;53.458;9.940;2023-06-19T05:41:02;19.80;55.20
9271;DHT22;4673;53.458;9.940;2023-06-19T05:43:28;19.90;54.80
9271;DHT22;4673;53.458;9.940;2023-06-19T05:45:53;19.90;54.20
9271;DHT22;4673;53.458;9.940;2023-06-19T05:48:21;19.90;53.90
9271;DHT22;4673;53.458;9.940;2023-06-19T05:50:47;19.90;53.90
9271;DHT22;4673;53.458;9.940;2023-06-19T05:53:12;19.90;54.20
9271;DHT22;4673;53.458;9.940;2023-06-19T05:55:38;19.90;54.30
9271;DHT22;4673;53.458;9.940;2023-06-19T05:58:04;19.90;54.30
9271;DHT22;4673;53.458;9.940;2023-06-19T06:00:30;20.00;54.40
9271;DHT22;4673;53.458;9.940;2023-06-19T06:02:57;20.00;55.00
9271;DHT22;4673;53.458;9.940;2023-06-19T06:05:27;20.00;55.60
9271;DHT22;4673;53.458;9.940;2023-06-19T06:07:53;20.00;56.60
9271;DHT22;4673;53.458;9.940;2023-06-19T06:10:23;20.10;57.60
9271;DHT22;4673;53.458;9.940;2023-06-19T06:12:50;20.10;57.50
9271;DHT22;4673;53.458;9.940;2023-06-19T06:15:16;20.20;57.50
9271;DHT22;4673;53.458;9.940;2023-06-19T06:17:42;20.30;57.50
9271;DHT22;4673;53.458;9.940;2023-06-19T06:20:08;20.40;56.60
9271;DHT22;4673;53.458;9.940;2023-06-19T06:22:38;20.50;55.90
9271;DHT22;4673;53.458;9.940;2023-06-19T06:25:05;20.60;55.70
9271;DHT22;4673;53.458;9.940;2023-06-19T06:27:31;20.70;55.30
9271;DHT22;4673;53.458;9.940;2023-06-19T06:29:57;20.70;54.80
9271;DHT22;4673;53.458;9.940;2023-06-19T06:32:22;20.80;54.90
9271;DHT22;4673;53.458;9.940;2023-06-19T06:34:48;20.90;55.10
9271;DHT22;4673;53.458;9.940;2023-06-19T06:37:13;20.90;55.00
9271;DHT22;4673;53.458;9.940;2023-06-19T06:39:41;21.00;54.90
9271;DHT22;4673;53.458;9.940;2023-06-19T06:42:07;21.00;54.20
9271;DHT22;4673;53.458;9.940;2023-06-19T06:44:32;21.00;54.00
9271;DHT22;4673;53.458;9.940;2023-06-19T06:46:58;21.00;53.60
9271;DHT22;4673;53.458;9.940;2023-06-19T06:49:24;21.00;53.90
9271;DHT22;4673;53.458;9.940;2023-06-19T06:51:50;21.10;53.50
9271;DHT22;4673;53.458;9.940;2023-06-19T06:54:15;21.10;53.20
9271;DHT22;4673;53.458;9.940;2023-06-19T06:56:41;21.30;53.10
9271;DHT22;4673;53.458;9.940;2023-06-19T06:59:07;21.30;52.60
9271;DHT22;4673;53.458;9.940;2023-06-19T07:01:32;21.30;52.40
9271;DHT22;4673;53.458;9.940;2023-06-19T07:03:58;21.30;52.50
9271;DHT22;4673;53.458;9.940;2023-06-19T07:06:24;21.10;51.90
9271;DHT22;4673;53.458;9.940;2023-06-19T07:08:49;21.30;52.10
9271;DHT22;4673;53.458;9.940;2023-06-19T07:11:15;21.10;52.50
9271;DHT22;4673;53.458;9.940;2023-06-19T07:13:40;21.10;52.90
9271;DHT22;4673;53.458;9.940;2023-06-19T07:16:07;21.00;52.60
9271;DHT22;4673;53.458;9.940;2023-06-19T07:18:33;21.00;52.90
9271;DHT22;4673;53.458;9.940;2023-06-19T07:21:01;21.00;52.90
9271;DHT22;4673;53.458;9.940;2023-06-19T07:23:27;21.10;52.70
9271;DHT22;4673;53.458;9.940;2023-06-19T07:25:53;21.20;52.40
9271;DHT22;4673;53.458;9.940;2023-06-19T07:28:21;21.30;52.40
9271;DHT22;4673;53.458;9.940;2023-06-19T07:30:47;21.30;52.90
9271;DHT22;4673;53.458;9.940;2023-06-19T07:33:13;21.40;52.70
9271;DHT22;4673;53.458;9.940;2023-06-19T07:35:39;21.50;52.70
9271;DHT22;4673;53.458;9.940;2023-06-19T07:38:04;21.60;51.90
9271;DHT22;4673;53.458;9.940;2023-06-19T07:40:30;21.80;51.00
9271;DHT22;4673;53.458;9.940;2023-06-19T07:42:55;22.10;50.40
9271;DHT22;4673;53.458;9.940;2023-06-19T07:45:21;22.30;49.30
9271;DHT22;4673;53.458;9.940;2023-06-19T07:47:55;22.60;49.20
9271;DHT22;4673;53.458;9.940;2023-06-19T07:50:21;22.80;47.00
9271;DHT22;4673;53.458;9.940;2023-06-19T07:52:47;23.10;45.80
9271;DHT22;4673;53.458;9.940;2023-06-19T07:55:13;23.30;44.80
9271;DHT22;4673;53.458;9.940;2023-06-19T07:57:38;23.60;44.20
9271;DHT22;4673;53.458;9.940;2023-06-19T08:00:04;23.90;42.40
9271;DHT22;4673;53.458;9.940;2023-06-19T08:02:37;24.20;39.80
9271;DHT22;4673;53.458;9.940;2023-06-19T08:05:02;24.50;36.50
9271;DHT22;4673;53.458;9.940;2023-06-19T08:07:28;24.60;35.50
9271;DHT22;4673;53.458;9.940;2023-06-19T08:09:54;24.80;34.30
9271;DHT22;4673;53.458;9.940;2023-06-19T08:12:19;25.00;33.80
9271;DHT22;4673;53.458;9.940;2023-06-19T08:14:45;25.20;32.50
9271;DHT22;4673;53.458;9.940;2023-06-19T08:17:11;25.40;30.00
9271;DHT22;4673;53.458;9.940;2023-06-19T08:19:36;25.70;28.80
9271;DHT22;4673;53.458;9.940;2023-06-19T08:22:05;25.70;28.40
9271;DHT22;4673;53.458;9.940;2023-06-19T08:24:30;25.80;27.70
9271;DHT22;4673;53.458;9.940;2023-06-19T08:26:56;25.90;27.20
9271;DHT22;4673;53.458;9.940;2023-06-19T08:29:23;25.90;26.80
9271;DHT22;4673;53.458;9.940;2023-06-19T08:31:48;26.00;27.80
9271;DHT22;4673;53.458;9.940;2023-06-19T08:34:14;26.00;28.10
9271;DHT22;4673;53.458;9.940;2023-06-19T08:36:40;26.00;29.00
9271;DHT22;4673;53.458;9.940;2023-06-19T08:39:06;26.10;27.60
9271;DHT22;4673;53.458;9.940;2023-06-19T08:41:34;26.20;26.30
9271;DHT22;4673;53.458;9.940;2023-06-19T08:44:00;26.20;25.20
9271;DHT22;4673;53.458;9.940;2023-06-19T08:46:25;26.20;26.10
9271;DHT22;4673;53.458;9.940;2023-06-19T08:48:51;26.20;26.50
9271;DHT22;4673;53.458;9.940;2023-06-19T08:51:19;26.30;26.20
9271;DHT22;4673;53.458;9.940;2023-06-19T08:53:54;26.50;24.80
9271;DHT22;4673;53.458;9.940;2023-06-19T08:56:21;26.60;23.40
9271;DHT22;4673;53.458;9.940;2023-06-19T08:58:47;26.60;24.10
9271;DHT22;4673;53.458;9.940;2023-06-19T09:01:19;26.70;23.20
9271;DHT22;4673;53.458;9.940;2023-06-19T09:03:46;26.90;22.60
9271;DHT22;4673;53.458;9.940;2023-06-19T09:06:15;27.20;22.10
9271;DHT22;4673;53.458;9.940;2023-06-19T09:08:41;27.30;18.70
9271;DHT22;4673;53.458;9.940;2023-06-19T09:11:07;27.20;18.00
9271;DHT22;4673;53.458;9.940;2023-06-19T09:13:33;27.30;18.40
9271;DHT22;4673;53.458;9.940;2023-06-19T09:16:07;27.40;17.10
9271;DHT22;4673;53.458;9.940;2023-06-19T09:18:44;27.40;17.20
9271;DHT22;4673;53.458;9.940;2023-06-19T09:21:20;27.50;18.00
9271;DHT22;4673;53.458;9.940;2023-06-19T09:23:48;27.70;16.60
9271;DHT22;4673;53.458;9.940;2023-06-19T09:26:17;28.00;16.50
9271;DHT22;4673;53.458;9.940;2023-06-19T09:28:45;28.10;16.60
9271;DHT22;4673;53.458;9.940;2023-06-19T09:31:11;28.30;14.90
9271;DHT22;4673;53.458;9.940;2023-06-19T09:33:38;28.50;14.10
9271;DHT22;4673;53.458;9.940;2023-06-19T09:36:05;28.80;13.50
9271;DHT22;4673;53.458;9.940;2023-06-19T09:38:36;29.10;14.60
9271;DHT22;4673;53.458;9.940;2023-06-19T09:41:04;29.20;11.60
9271;DHT22;4673;53.458;9.940;2023-06-19T09:43:36;29.10;11.40
9271;DHT22;4673;53.458;9.940;2023-06-19T09:46:03;29.20;12.30
9271;DHT22;4673;53.458;9.940;2023-06-19T09:48:31;29.30;11.20
9271;DHT22;4673;53.458;9.940;2023-06-19T09:51:18;29.20;10.60
9271;DHT22;4673;53.458;9.940;2023-06-19T09:53:45;29.30;11.10
9271;DHT22;4673;53.458;9.940;2023-06-19T09:56:15;29.40;9.40
9271;DHT22;4673;53.458;9.940;2023-06-19T09:58:43;29.70;9.30
9271;DHT22;4673;53.458;9.940;2023-06-19T10:01:09;29.80;8.20
9271;DHT22;4673;53.458;9.940;2023-06-19T10:03:36;29.90;8.40
9271;DHT22;4673;53.458;9.940;2023-06-19T10:06:03;30.00;9.30
9271;DHT22;4673;53.458;9.940;2023-06-19T10:08:40;30.40;8.60
9271;DHT22;4673;53.458;9.940;2023-06-19T10:11:06;30.70;7.00
9271;DHT22;4673;53.458;9.940;2023-06-19T10:13:33;30.70;6.40
9271;DHT22;4673;53.458;9.940;2023-06-19T10:15:59;30.80;5.30
9271;DHT22;4673;53.458;9.940;2023-06-19T10:18:25;30.90;5.00
9271;DHT22;4673;53.458;9.940;2023-06-19T10:20:53;30.90;5.00
9271;DHT22;4673;53.458;9.940;2023-06-19T10:23:23;30.90;5.00
9271;DHT22;4673;53.458;9.940;2023-06-19T10:31:04;30.60;5.00
9271;DHT22;4673;53.458;9.940;2023-06-19T10:33:34;30.40;5.00
9271;DHT22;4673;53.458;9.940;2023-06-19T10:36:20;30.40;5.00
9271;DHT22;4673;53.458;9.940;2023-06-19T10:38:48;30.20;5.00
9271;DHT22;4673;53.458;9.940;2023-06-19T10:41:18;30.30;5.00
9271;DHT22;4673;53.458;9.940;2023-06-19T10:43:57;30.20;5.00
9271;DHT22;4673;53.458;9.940;2023-06-19T10:46:24;30.20;5.00
9271;DHT22;4673;53.458;9.940;2023-06-19T10:48:50;30.10;5.30
9271;DHT22;4673;53.458;9.940;2023-06-19T10:51:20;29.80;5.10
9271;DHT22;4673;53.458;9.940;2023-06-19T10:53:46;29.70;5.50
9271;DHT22;4673;53.458;9.940;2023-06-19T10:56:11;29.70;5.60
9271;DHT22;4673;53.458;9.940;2023-06-19T10:58:37;29.70;6.00
9271;DHT22;4673;53.458;9.940;2023-06-19T11:01:02;29.90;7.30
9271;DHT22;4673;53.458;9.940;2023-06-19T11:03:29;30.00;6.90
9271;DHT22;4673;53.458;9.940;2023-06-19T11:05:57;30.00;6.80
9271;DHT22;4673;53.458;9.940;2023-06-19T11:08:23;30.00;5.00
9271;DHT22;4673;53.458;9.940;2023-06-19T11:10:49;29.90;6.00
9271;DHT22;4673;53.458;9.940;2023-06-19T11:13:17;29.90;5.00
9271;DHT22;4673;53.458;9.940;2023-06-19T11:15:44;29.90;5.00
9271;DHT22;4673;53.458;9.940;2023-06-19T11:18:10;30.10;5.30
9271;DHT22;4673;53.458;9.940;2023-06-19T11:20:47;30.30;5.00
9271;DHT22;4673;53.458;9.940;2023-06-19T11:23:13;30.40;5.00
9271;DHT22;4673;53.458;9.940;2023-06-19T11:25:41;30.40;5.00
9271;DHT22;4673;53.458;9.940;2023-06-19T11:28:17;30.50;5.00
9271;DHT22;4673;53.458;9.940;2023-06-19T11:30:49;30.50;5.00
9271;DHT22;4673;53.458;9.940;2023-06-19T11:33:21;30.40;5.00
9271;DHT22;4673;53.458;9.940;2023-06-19T11:36:00;30.30;5.00
9271;DHT22;4673;53.458;9.940;2023-06-19T11:38:26;30.50;5.00
9271;DHT22;4673;53.458;9.940;2023-06-19T11:40:53;30.80;5.00
9271;DHT22;4673;53.458;9.940;2023-06-19T11:43:30;31.10;5.00
9271;DHT22;4673;53.458;9.940;2023-06-19T11:46:03;31.20;5.00
9271;DHT22;4673;53.458;9.940;2023-06-19T11:48:29;31.40;5.00
9271;DHT22;4673;53.458;9.940;2023-06-19T11:50:55;31.60;5.00
9271;DHT22;4673;53.458;9.940;2023-06-19T11:53:22;31.80;5.00
9271;DHT22;4673;53.458;9.940;2023-06-19T11:55:49;31.90;5.00
9271;DHT22;4673;53.458;9.940;2023-06-19T11:58:15;31.90;5.00
9271;DHT22;4673;53.458;9.940;2023-06-19T12:00:41;31.70;5.00
9271;DHT22;4673;53.458;9.940;2023-06-19T12:03:07;31.50;5.00
9271;DHT22;4673;53.458;9.940;2023-06-19T12:05:33;31.40;5.00
9271;DHT22;4673;53.458;9.940;2023-06-19T12:07:59;31.30;5.00
9271;DHT22;4673;53.458;9.940;2023-06-19T12:10:28;31.30;5.00
9271;DHT22;4673;53.458;9.940;2023-06-19T12:12:53;31.20;5.00
9271;DHT22;4673;53.458;9.940;2023-06-19T12:15:19;31.10;5.00
9271;DHT22;4673;53.458;9.940;2023-06-19T12:17:46;31.00;5.00
9271;DHT22;4673;53.458;9.940;2023-06-19T12:20:12;30.90;5.00
9271;DHT22;4673;53.458;9.940;2023-06-19T12:22:39;30.90;5.00
9271;DHT22;4673;53.458;9.940;2023-06-19T12:25:05;30.90;5.00
9271;DHT22;4673;53.458;9.940;2023-06-19T12:27:31;30.80;5.00
9271;DHT22;4673;53.458;9.940;2023-06-19T12:29:56;30.80;5.00
9271;DHT22;4673;53.458;9.940;2023-06-19T12:32:22;30.90;5.00
9271;DHT22;4673;53.458;9.940;2023-06-19T12:34:49;30.60;5.00
9271;DHT22;4673;53.458;9.940;2023-06-19T12:37:15;30.40;6.10
9271;DHT22;4673;53.458;9.940;2023-06-19T12:39:43;30.60;6.10
9271;DHT22;4673;53.458;9.940;2023-06-19T12:42:09;30.90;6.00
9271;DHT22;4673;53.458;9.940;2023-06-19T12:44:40;31.00;5.60
9271;DHT22;4673;53.458;9.940;2023-06-19T12:47:06;30.90;5.00
9271;DHT22;4673;53.458;9.940;2023-06-19T12:49:32;30.80;6.00
9271;DHT22;4673;53.458;9.940;2023-06-19T12:51:58;30.90;5.80
9271;DHT22;4673;53.458;9.940;2023-06-19T12:54:24;30.80;5.80
9271;DHT22;4673;53.458;9.940;2023-06-19T12:56:49;31.10;6.00
9271;DHT22;4673;53.458;9.940;2023-06-19T12:59:16;31.20;5.20
9271;DHT22;4673;53.458;9.940;2023-06-19T13:01:42;31.40;5.00
9271;DHT22;4673;53.458;9.940;2023-06-19T13:04:08;31.60;5.00
9271;DHT22;4673;53.458;9.940;2023-06-19T13:06:35;31.50;5.00
9271;DHT22;4673;53.458;9.940;2023-06-19T13:09:01;31.60;5.00
9271;DHT22;4673;53.458;9.940;2023-06-19T13:11:27;31.50;5.00
9271;DHT22;4673;53.458;9.940;2023-06-19T13:13:53;31.30;5.00
9271;DHT22;4673;53.458;9.940;2023-06-19T13:16:18;31.20;5.00
9271;DHT22;4673;53.458;9.940;2023-06-19T13:18:44;31.00;5.00
9271;DHT22;4673;53.458;9.940;2023-06-19T13:21:11;31.00;5.00
9271;DHT22;4673;53.458;9.940;2023-06-19T13:23:37;30.70;5.00
9271;DHT22;4673;53.458;9.940;2023-06-19T13:26:02;30.40;5.90
9271;DHT22;4673;53.458;9.940;2023-06-19T13:28:28;30.40;6.00
9271;DHT22;4673;53.458;9.940;2023-06-19T13:30:54;30.30;7.20
9271;DHT22;4673;53.458;9.940;2023-06-19T13:33:20;30.40;7.20
9271;DHT22;4673;53.458;9.940;2023-06-19T13:35:45;30.40;7.40
9271;DHT22;4673;53.458;9.940;2023-06-19T13:38:11;29.60;7.70
9271;DHT22;4673;53.458;9.940;2023-06-19T13:40:37;29.20;9.00
9271;DHT22;4673;53.458;9.940;2023-06-19T13:43:03;28.70;10.20
9271;DHT22;4673;53.458;9.940;2023-06-19T13:45:29;28.80;11.80
9271;DHT22;4673;53.458;9.940;2023-06-19T13:47:56;29.00;13.10
9271;DHT22;4673;53.458;9.940;2023-06-19T13:50:23;29.30;12.10
9271;DHT22;4673;53.458;9.940;2023-06-19T13:52:49;29.20;10.40
9271;DHT22;4673;53.458;9.940;2023-06-19T13:55:15;29.10;11.50
9271;DHT22;4673;53.458;9.940;2023-06-19T13:57:41;29.20;11.90
9271;DHT22;4673;53.458;9.940;2023-06-19T14:00:09;29.10;11.90
9271;DHT22;4673;53.458;9.940;2023-06-19T14:02:36;29.00;11.80
9271;DHT22;4673;53.458;9.940;2023-06-19T14:05:06;28.80;13.10
9271;DHT22;4673;53.458;9.940;2023-06-19T14:07:33;28.80;13.80
9271;DHT22;4673;53.458;9.940;2023-06-19T14:10:00;28.90;14.10
9271;DHT22;4673;53.458;9.940;2023-06-19T14:12:26;29.00;14.00
9271;DHT22;4673;53.458;9.940;2023-06-19T14:14:52;28.80;13.20
9271;DHT22;4673;53.458;9.940;2023-06-19T14:17:18;28.90;13.70
9271;DHT22;4673;53.458;9.940;2023-06-19T14:19:43;29.20;12.80
9271;DHT22;4673;53.458;9.940;2023-06-19T14:22:09;29.50;12.10
9271;DHT22;4673;53.458;9.940;2023-06-19T14:24:35;29.60;10.50
9271;DHT22;4673;53.458;9.940;2023-06-19T14:27:00;29.40;9.90
9271;DHT22;4673;53.458;9.940;2023-06-19T14:29:26;29.30;11.10
9271;DHT22;4673;53.458;9.940;2023-06-19T14:31:52;29.40;11.50
9271;DHT22;4673;53.458;9.940;2023-06-19T14:34:19;29.20;10.60
9271;DHT22;4673;53.458;9.940;2023-06-19T14:36:45;28.80;12.10
9271;DHT22;4673;53.458;9.940;2023-06-19T14:39:11;28.80;12.30
9271;DHT22;4673;53.458;9.940;2023-06-19T14:41:37;28.90;12.40
9271;DHT22;4673;53.458;9.940;2023-06-19T14:44:03;29.00;13.20
9271;DHT22;4673;53.458;9.940;2023-06-19T14:46:30;29.00;12.00
9271;DHT22;4673;53.458;9.940;2023-06-19T14:48:57;29.10;11.60
9271;DHT22;4673;53.458;9.940;2023-06-19T14:51:24;29.20;10.90
9271;DHT22;4673;53.458;9.940;2023-06-19T14:53:50;29.30;10.70
9271;DHT22;4673;53.458;9.940;2023-06-19T14:56:16;29.00;8.70
9271;DHT22;4673;53.458;9.940;2023-06-19T14:58:42;28.90;9.80
9271;DHT22;4673;53.458;9.940;2023-06-19T15:01:08;29.00;10.90
9271;DHT22;4673;53.458;9.940;2023-06-19T15:03:34;29.10;11.00
9271;DHT22;4673;53.458;9.940;2023-06-19T15:06:00;29.40;10.30
9271;DHT22;4673;53.458;9.940;2023-06-19T15:08:26;29.60;10.50
9271;DHT22;4673;53.458;9.940;2023-06-19T15:10:52;29.80;9.60
9271;DHT22;4673;53.458;9.940;2023-06-19T15:13:18;29.90;9.40
9271;DHT22;4673;53.458;9.940;2023-06-19T15:15:44;29.90;8.20
9271;DHT22;4673;53.458;9.940;2023-06-19T15:18:11;29.40;8.20
9271;DHT22;4673;53.458;9.940;2023-06-19T15:20:36;29.30;9.90
9271;DHT22;4673;53.458;9.940;2023-06-19T15:23:07;29.20;10.90
9271;DHT22;4673;53.458;9.940;2023-06-19T15:25:32;29.30;11.10
9271;DHT22;4673;53.458;9.940;2023-06-19T15:27:58;29.30;10.20
9271;DHT22;4673;53.458;9.940;2023-06-19T15:30:23;29.00;10.90
9271;DHT22;4673;53.458;9.940;2023-06-19T15:32:49;29.00;11.90
9271;DHT22;4673;53.458;9.940;2023-06-19T15:35:15;29.00;11.50
9271;DHT22;4673;53.458;9.940;2023-06-19T15:37:41;28.90;11.50
9271;DHT22;4673;53.458;9.940;2023-06-19T15:40:07;29.00;11.20
9271;DHT22;4673;53.458;9.940;2023-06-19T15:42:33;29.00;10.90
9271;DHT22;4673;53.458;9.940;2023-06-19T15:44:58;29.00;11.10
9271;DHT22;4673;53.458;9.940;2023-06-19T15:47:24;29.00;11.00
9271;DHT22;4673;53.458;9.940;2023-06-19T15:49:50;29.10;10.80
9271;DHT22;4673;53.458;9.940;2023-06-19T15:52:16;29.30;10.90
9271;DHT22;4673;53.458;9.940;2023-06-19T15:54:41;29.50;9.20
9271;DHT22;4673;53.458;9.940;2023-06-19T15:57:07;29.50;8.50
9271;DHT22;4673;53.458;9.940;2023-06-19T15:59:33;29.70;7.40
9271;DHT22;4673;53.458;9.940;2023-06-19T16:01:58;29.60;6.90
9271;DHT22;4673;53.458;9.940;2023-06-19T16:04:24;29.50;6.90
9271;DHT22;4673;53.458;9.940;2023-06-19T16:06:50;29.40;6.90
9271;DHT22;4673;53.458;9.940;2023-06-19T16:09:15;29.00;7.80
9271;DHT22;4673;53.458;9.940;2023-06-19T16:11:41;28.80;9.60